Historyczne dane pomiarowe

Dodano dane terminowe – wersja testowa.

Dane z okresu 1951-2019

Wersja bazy: 1.34 [2019-03-16, lista zmian], aktualizacja planowana na 2019-04-15

Dane meteo z obszaru Polski uzyskane na podstawie danych udostępnionych przez Instytut Meteorologii i Gospodarki Wodnej – Państwowy Instytut Badawczy.

 

Wybierz Datę:    

       

TemperaturaWilgotnośćWiatrCiśnienieOpadyŚniegCzas trwania zjawisk
 Stacja t tx tn tng RH VA  wxwx mslp ppp RRR   cm mm wxwxwxwxwxwxwx
2019-06-02 19.3 26.4 12.4 9.0 80.5- 3.3 2.0---- 0.0------------
2019-06-01 18.8 24.6 11.3 8.1 82.5- 3.3 4.0---- 0.0------------
2019-05-31 17.2 22.3 11.7 9.4 56.0- 2.3 1.7---- 0.0------------
2019-05-30 13.9 19.1 8.8 7.5 67.8- 7.0 4.0---- 0.0------------
2019-05-29 14.2 16.7 11.8 11.0 92.0- 8.0 4.0---- 1.1------------
2019-05-28 18.9 25.5 16.2 13.0 89.5- 7.7 5.3---- 11.1------------
2019-05-27 18.9 25.8 11.2 6.7 77.5- 4.7 3.3---- 5.5------------
2019-05-26 16.6 22.3 10.0 6.6 60.5- 4.3 4.0---- 0.0------------
2019-05-25 18.1 22.9 13.8 11.0 59.0- 4.0 3.3---- 0.0------------
2019-05-24 15.2 19.1 12.2 11.5 86.0- 7.3 3.7---- 0.0------------
2019-05-23 16.5 21.1 12.7 10.5 81.5- 7.0 4.3---- 2.8------------
2019-05-22 15.2 19.1 12.1 10.5 91.5- 7.3 5.7---- 1.8------------
2019-05-21 16.3 21.7 13.6 10.7 84.0- 7.3 5.0---- 4.3------------
2019-05-20 19.1 24.9 15.3 11.9 83.3- 7.3 4.7---- 14.8------------
2019-05-19 18.5 23.2 15.1 13.2 86.3- 5.7 5.0---- 0.6------------
2019-05-18 18.4 24.8 13.4 9.1 73.5- 6.7 3.3---- 1.7------------
2019-05-17 17.7 22.2 13.4 10.2 80.8- 6.0 3.3---- 0.0------------
2019-05-16 14.1 18.4 11.0 10.2 92.8- 8.0 4.3---- 4.5------------
2019-05-15 10.4 12.3 7.4 6.5 97.0- 8.0 3.7---- 10.8------------
2019-05-14 7.1 8.6 5.9 5.0 94.5- 8.0 4.7---- 5.5------------
2019-05-13 10.8 18.5 8.0 6.4 85.3- 8.0 6.7---- 3.5------------
2019-05-12 16.0 23.7 7.8 2.6 73.5- 4.7 3.3---- 0.0------------
2019-05-11 13.1 19.2 6.2 2.0 84.3- 4.7 4.0---- 0.0------------
2019-05-10 12.0 16.0 8.4 6.5 84.0- 7.0 2.0---- 0.2------------
2019-05-09 13.0 19.1 6.8 1.2 59.5- 4.7 6.0---- 0.3------------
2019-05-08 8.4 15.5 0.4 -3.6 57.3- 4.0 3.7---- 0.0------------
2019-05-07 10.3 14.8 6.8 5.0 64.0- 5.7 5.3---- 0.0------------
2019-05-06 8.8 12.3 5.1 3.7 48.8- 8.0 6.7---- 0.0------------
2019-05-05 8.3 11.9 5.9 2.1 69.5- 8.0 5.0---- 0.0------------
2019-05-04 10.4 15.4 5.7 1.7 59.8- 4.0 3.7---- 0.0------------
2019-05-03 10.1 14.1 5.2 0.8 66.8- 7.3 4.7---- 0.0------------
2019-05-02 12.9 18.2 7.8 4.5 58.8- 5.0 3.7---- 0.0------------
2019-05-01 11.4 16.7 5.9 1.6 77.8- 3.3 4.0---- 0.5------------
2019-04-30 11.7 15.9 7.8 5.0 78.0- 6.3 3.3---- 0.0------------
2019-04-29 12.7 15.9 10.8 9.2 94.8- 8.0 2.0---- 4.5------------
2019-04-28 11.8 13.5 11.1 10.0 86.8- 8.0 4.0---- 21.0------------
2019-04-27 16.8 22.4 13.4 7.7 63.5- 6.3 4.7---- 0.0------------
2019-04-26 19.7 26.8 11.7 5.5 47.8- 2.7 4.0---- 0.0------------
2019-04-25 18.0 25.3 10.7 5.5 53.0- 4.0 6.3---- 0.0------------
2019-04-24 13.9 19.5 8.0 2.5 49.3- 5.7 9.0---- 0.0------------
2019-04-23 12.5 18.9 4.9 0.8 37.3- 0.0 5.3---- 0.0------------
2019-04-22 11.0 16.9 5.9 3.8 65.3- 4.7 10.7---- 0.4------------
2019-04-21 10.4 16.5 7.0 2.4 63.0- 7.7 6.7---- 9.0------------
2019-04-20 11.2 19.2 1.9 -2.5 42.3- 2.7 3.7---- 0.0------------
2019-04-19 11.7 19.8 2.0 -1.5 36.5- 0.0 3.3---- 0.0------------
2019-04-18 11.6 19.6 2.0 -1.6 48.0- 1.0 3.3---- 0.0------------
2019-04-17 10.7 18.1 4.2 0.5 54.3- 1.0 4.7---- 0.0------------
2019-04-16 4.4 10.3 -0.8 -4.7 65.5- 6.0 5.0---- 3.2------------
2019-04-15 6.2 11.3 0.5 0.5 40.8- 0.0 3.7---- 0.0------------
2019-04-14 7.9 12.8 3.9 2.0 58.8- 2.0 5.7---- 0.0------------
2019-04-13 6.1 10.2 2.1 1.2 76.8- 8.0 4.7---- 0.0------------
2019-04-12 4.6 8.1 1.7 1.0 57.8- 8.0 5.0---- 0.0------------
2019-04-11 4.8 8.0 2.2 0.4 68.3- 8.0 2.7---- 0.1------------
2019-04-10 6.0 9.9 2.7 0.3 52.5- 7.7 4.7---- 0.0------------
2019-04-09 8.0 14.1 4.5 0.0 66.8- 0.0 5.7---- 0.0------------
2019-04-08 9.6 17.4 1.8 -2.0 72.5- 3.7 2.0---- 0.0------------
2019-04-07 10.6 14.9 7.4 5.0 69.3- 5.0 2.3---- 0.1------------
2019-04-06 10.7 16.7 5.3 0.5 62.5- 5.0 6.0---- 1.0------------
2019-04-05 11.2 18.5 5.6 0.5 45.5- 4.7 7.3---- 0.0------------
2019-04-04 9.8 16.7 3.5 -1.8 40.3- 2.7 7.3---- 0.0------------
230.4 ms

 

Źródłem pochodzenia danych jest Instytut Meteorologii i Gospodarki Wodnej – Państwowy Instytut Badawczy. Dane Instytutu Meteorologii i Gospodarki Wodnej – Państwowego Instytutu Badawczego zostały przetworzone.

Dane źródłowe można odnaleźć na stronie https://dane.imgw.pl